sensor_id;sensor_type;location;lat;lon;timestamp;P1;durP1;ratioP1;P2;durP2;ratioP2
60336;SDS011;46978;50.288;28.624;2024-03-25T00:00:20;58.86;;;34.99;;
60336;SDS011;46978;50.288;28.624;2024-03-25T00:01:22;53.23;;;32.18;;
60336;SDS011;46978;50.288;28.624;2024-03-25T00:02:23;66.36;;;40.94;;
60336;SDS011;46978;50.288;28.624;2024-03-25T00:03:25;58.05;;;34.24;;
60336;SDS011;46978;50.288;28.624;2024-03-25T00:04:26;51.04;;;30.16;;
60336;SDS011;46978;50.288;28.624;2024-03-25T00:05:28;58.66;;;35.14;;
60336;SDS011;46978;50.288;28.624;2024-03-25T00:06:29;58.81;;;32.13;;
60336;SDS011;46978;50.288;28.624;2024-03-25T00:07:31;56.90;;;32.99;;
60336;SDS011;46978;50.288;28.624;2024-03-25T00:08:33;51.69;;;32.79;;
60336;SDS011;46978;50.288;28.624;2024-03-25T00:09:35;56.57;;;30.92;;
60336;SDS011;46978;50.288;28.624;2024-03-25T00:10:36;61.46;;;33.21;;
60336;SDS011;46978;50.288;28.624;2024-03-25T00:11:38;55.61;;;32.09;;
60336;SDS011;46978;50.288;28.624;2024-03-25T00:12:39;57.43;;;36.09;;
60336;SDS011;46978;50.288;28.624;2024-03-25T00:13:41;54.06;;;33.51;;
60336;SDS011;46978;50.288;28.624;2024-03-25T00:14:43;59.48;;;34.24;;
60336;SDS011;46978;50.288;28.624;2024-03-25T00:15:44;57.89;;;33.39;;
60336;SDS011;46978;50.288;28.624;2024-03-25T00:16:46;48.24;;;30.39;;
60336;SDS011;46978;50.288;28.624;2024-03-25T00:17:48;52.64;;;30.90;;
60336;SDS011;46978;50.288;28.624;2024-03-25T00:18:49;52.60;;;30.10;;
60336;SDS011;46978;50.288;28.624;2024-03-25T00:19:51;59.95;;;34.74;;
60336;SDS011;46978;50.288;28.624;2024-03-25T00:20:52;62.43;;;33.89;;
60336;SDS011;46978;50.288;28.624;2024-03-25T00:21:54;63.45;;;36.36;;
60336;SDS011;46978;50.288;28.624;2024-03-25T00:22:55;65.79;;;35.09;;
60336;SDS011;46978;50.288;28.624;2024-03-25T00:23:57;53.51;;;30.84;;
60336;SDS011;46978;50.288;28.624;2024-03-25T00:24:58;49.60;;;29.28;;
60336;SDS011;46978;50.288;28.624;2024-03-25T00:26:00;54.70;;;29.85;;
60336;SDS011;46978;50.288;28.624;2024-03-25T00:27:01;54.09;;;29.26;;
60336;SDS011;46978;50.288;28.624;2024-03-25T00:28:03;52.35;;;30.48;;
60336;SDS011;46978;50.288;28.624;2024-03-25T00:29:05;53.94;;;31.58;;
60336;SDS011;46978;50.288;28.624;2024-03-25T00:30:07;59.99;;;30.85;;
60336;SDS011;46978;50.288;28.624;2024-03-25T00:31:10;57.06;;;31.97;;
60336;SDS011;46978;50.288;28.624;2024-03-25T00:32:11;57.40;;;29.85;;
60336;SDS011;46978;50.288;28.624;2024-03-25T00:33:13;55.19;;;31.51;;
60336;SDS011;46978;50.288;28.624;2024-03-25T00:34:14;57.68;;;32.77;;
60336;SDS011;46978;50.288;28.624;2024-03-25T00:35:16;61.94;;;31.39;;
60336;SDS011;46978;50.288;28.624;2024-03-25T00:36:17;55.38;;;30.19;;
60336;SDS011;46978;50.288;28.624;2024-03-25T00:37:19;51.64;;;29.12;;
60336;SDS011;46978;50.288;28.624;2024-03-25T00:38:21;53.62;;;29.43;;
60336;SDS011;46978;50.288;28.624;2024-03-25T00:39:22;51.18;;;27.64;;
60336;SDS011;46978;50.288;28.624;2024-03-25T00:40:24;46.67;;;26.32;;
60336;SDS011;46978;50.288;28.624;2024-03-25T00:41:25;48.21;;;25.13;;
60336;SDS011;46978;50.288;28.624;2024-03-25T00:42:27;44.74;;;22.92;;
60336;SDS011;46978;50.288;28.624;2024-03-25T00:43:29;43.03;;;22.39;;
60336;SDS011;46978;50.288;28.624;2024-03-25T00:44:30;39.23;;;21.51;;
60336;SDS011;46978;50.288;28.624;2024-03-25T00:45:32;40.06;;;21.48;;
60336;SDS011;46978;50.288;28.624;2024-03-25T00:46:34;39.20;;;21.36;;
60336;SDS011;46978;50.288;28.624;2024-03-25T00:47:35;40.89;;;22.18;;
60336;SDS011;46978;50.288;28.624;2024-03-25T00:48:37;39.98;;;20.94;;
60336;SDS011;46978;50.288;28.624;2024-03-25T00:49:39;39.82;;;21.08;;
60336;SDS011;46978;50.288;28.624;2024-03-25T00:50:40;44.14;;;22.29;;
60336;SDS011;46978;50.288;28.624;2024-03-25T00:51:42;37.68;;;22.03;;
60336;SDS011;46978;50.288;28.624;2024-03-25T00:52:43;38.19;;;21.46;;
60336;SDS011;46978;50.288;28.624;2024-03-25T00:53:45;34.11;;;20.62;;
60336;SDS011;46978;50.288;28.624;2024-03-25T00:54:46;38.26;;;21.42;;
60336;SDS011;46978;50.288;28.624;2024-03-25T00:55:48;35.77;;;19.02;;
60336;SDS011;46978;50.288;28.624;2024-03-25T00:56:50;38.00;;;21.21;;
60336;SDS011;46978;50.288;28.624;2024-03-25T00:57:51;34.25;;;20.32;;
60336;SDS011;46978;50.288;28.624;2024-03-25T00:58:53;34.91;;;21.19;;
60336;SDS011;46978;50.288;28.624;2024-03-25T00:59:55;45.51;;;22.52;;
60336;SDS011;46978;50.288;28.624;2024-03-25T01:00:57;35.32;;;20.59;;
60336;SDS011;46978;50.288;28.624;2024-03-25T01:01:58;38.41;;;20.29;;
60336;SDS011;46978;50.288;28.624;2024-03-25T01:03:00;33.36;;;18.01;;
60336;SDS011;46978;50.288;28.624;2024-03-25T01:04:02;38.29;;;19.74;;
60336;SDS011;46978;50.288;28.624;2024-03-25T01:05:04;38.71;;;19.11;;
60336;SDS011;46978;50.288;28.624;2024-03-25T01:06:06;32.86;;;18.89;;
60336;SDS011;46978;50.288;28.624;2024-03-25T01:07:08;34.07;;;17.94;;
60336;SDS011;46978;50.288;28.624;2024-03-25T01:08:10;34.67;;;19.41;;
60336;SDS011;46978;50.288;28.624;2024-03-25T01:09:12;34.66;;;19.66;;
60336;SDS011;46978;50.288;28.624;2024-03-25T01:10:14;29.88;;;19.26;;
60336;SDS011;46978;50.288;28.624;2024-03-25T01:11:18;34.71;;;18.89;;
60336;SDS011;46978;50.288;28.624;2024-03-25T01:12:19;31.19;;;18.71;;
60336;SDS011;46978;50.288;28.624;2024-03-25T01:13:21;33.19;;;19.92;;
60336;SDS011;46978;50.288;28.624;2024-03-25T01:14:23;37.47;;;18.76;;
60336;SDS011;46978;50.288;28.624;2024-03-25T01:15:24;34.30;;;19.73;;
60336;SDS011;46978;50.288;28.624;2024-03-25T01:16:26;33.44;;;17.39;;
60336;SDS011;46978;50.288;28.624;2024-03-25T01:17:27;28.39;;;16.86;;
60336;SDS011;46978;50.288;28.624;2024-03-25T01:18:29;31.74;;;17.51;;
60336;SDS011;46978;50.288;28.624;2024-03-25T01:19:30;27.64;;;15.76;;
60336;SDS011;46978;50.288;28.624;2024-03-25T01:20:32;29.52;;;16.55;;
60336;SDS011;46978;50.288;28.624;2024-03-25T01:21:34;31.68;;;15.86;;
60336;SDS011;46978;50.288;28.624;2024-03-25T01:22:35;28.02;;;15.11;;
60336;SDS011;46978;50.288;28.624;2024-03-25T01:23:37;24.66;;;14.50;;
60336;SDS011;46978;50.288;28.624;2024-03-25T01:24:38;27.69;;;13.93;;
60336;SDS011;46978;50.288;28.624;2024-03-25T01:25:40;25.52;;;13.96;;
60336;SDS011;46978;50.288;28.624;2024-03-25T01:26:42;24.67;;;13.95;;
60336;SDS011;46978;50.288;28.624;2024-03-25T01:27:43;26.07;;;14.78;;
60336;SDS011;46978;50.288;28.624;2024-03-25T01:28:45;27.02;;;14.07;;
60336;SDS011;46978;50.288;28.624;2024-03-25T01:29:46;26.53;;;15.11;;
60336;SDS011;46978;50.288;28.624;2024-03-25T01:30:48;25.83;;;14.34;;
60336;SDS011;46978;50.288;28.624;2024-03-25T01:31:50;25.28;;;15.06;;
60336;SDS011;46978;50.288;28.624;2024-03-25T01:32:51;25.76;;;14.74;;
60336;SDS011;46978;50.288;28.624;2024-03-25T01:33:53;27.97;;;14.45;;
60336;SDS011;46978;50.288;28.624;2024-03-25T01:34:54;29.95;;;15.41;;
60336;SDS011;46978;50.288;28.624;2024-03-25T01:35:56;23.92;;;13.34;;
60336;SDS011;46978;50.288;28.624;2024-03-25T01:36:58;27.91;;;14.77;;
60336;SDS011;46978;50.288;28.624;2024-03-25T01:38:00;23.53;;;13.75;;
60336;SDS011;46978;50.288;28.624;2024-03-25T01:39:01;21.22;;;12.74;;
60336;SDS011;46978;50.288;28.624;2024-03-25T01:40:03;23.73;;;13.93;;
60336;SDS011;46978;50.288;28.624;2024-03-25T01:41:06;25.02;;;13.80;;
60336;SDS011;46978;50.288;28.624;2024-03-25T01:42:09;24.74;;;13.22;;
60336;SDS011;46978;50.288;28.624;2024-03-25T01:43:11;22.20;;;13.05;;
60336;SDS011;46978;50.288;28.624;2024-03-25T01:44:12;25.38;;;14.04;;
60336;SDS011;46978;50.288;28.624;2024-03-25T01:45:14;21.31;;;12.93;;
60336;SDS011;46978;50.288;28.624;2024-03-25T01:46:18;22.60;;;12.31;;
60336;SDS011;46978;50.288;28.624;2024-03-25T01:47:21;22.89;;;13.23;;
60336;SDS011;46978;50.288;28.624;2024-03-25T01:48:23;21.99;;;12.35;;
60336;SDS011;46978;50.288;28.624;2024-03-25T01:49:25;20.44;;;12.93;;
60336;SDS011;46978;50.288;28.624;2024-03-25T01:50:27;24.87;;;13.10;;
60336;SDS011;46978;50.288;28.624;2024-03-25T01:51:31;23.12;;;12.55;;
60336;SDS011;46978;50.288;28.624;2024-03-25T01:52:34;22.93;;;12.52;;
60336;SDS011;46978;50.288;28.624;2024-03-25T01:53:36;20.45;;;11.79;;
60336;SDS011;46978;50.288;28.624;2024-03-25T01:54:38;18.49;;;11.51;;
60336;SDS011;46978;50.288;28.624;2024-03-25T01:55:40;22.17;;;13.18;;
60336;SDS011;46978;50.288;28.624;2024-03-25T01:56:43;19.93;;;12.45;;
60336;SDS011;46978;50.288;28.624;2024-03-25T01:57:46;23.16;;;13.43;;
60336;SDS011;46978;50.288;28.624;2024-03-25T01:58:49;19.65;;;12.28;;
60336;SDS011;46978;50.288;28.624;2024-03-25T01:59:51;21.59;;;12.83;;
60336;SDS011;46978;50.288;28.624;2024-03-25T02:00:53;22.47;;;13.17;;
60336;SDS011;46978;50.288;28.624;2024-03-25T02:01:56;21.93;;;13.71;;
60336;SDS011;46978;50.288;28.624;2024-03-25T02:02:59;22.57;;;13.07;;
60336;SDS011;46978;50.288;28.624;2024-03-25T02:04:00;20.98;;;13.16;;
60336;SDS011;46978;50.288;28.624;2024-03-25T02:05:02;23.47;;;13.35;;
60336;SDS011;46978;50.288;28.624;2024-03-25T02:06:06;25.71;;;13.83;;
60336;SDS011;46978;50.288;28.624;2024-03-25T02:07:10;26.49;;;13.15;;
60336;SDS011;46978;50.288;28.624;2024-03-25T02:08:13;23.95;;;13.29;;
60336;SDS011;46978;50.288;28.624;2024-03-25T02:09:15;25.56;;;14.07;;
60336;SDS011;46978;50.288;28.624;2024-03-25T02:10:17;26.45;;;14.11;;
60336;SDS011;46978;50.288;28.624;2024-03-25T02:11:20;24.51;;;13.22;;
60336;SDS011;46978;50.288;28.624;2024-03-25T02:12:24;23.32;;;13.86;;
60336;SDS011;46978;50.288;28.624;2024-03-25T02:13:26;25.83;;;14.39;;
60336;SDS011;46978;50.288;28.624;2024-03-25T02:14:28;24.24;;;14.09;;
60336;SDS011;46978;50.288;28.624;2024-03-25T02:15:29;29.61;;;16.04;;
60336;SDS011;46978;50.288;28.624;2024-03-25T02:16:31;29.29;;;16.07;;
60336;SDS011;46978;50.288;28.624;2024-03-25T02:17:33;27.29;;;15.61;;
60336;SDS011;46978;50.288;28.624;2024-03-25T02:18:34;30.05;;;16.87;;
60336;SDS011;46978;50.288;28.624;2024-03-25T02:19:37;30.19;;;16.34;;
60336;SDS011;46978;50.288;28.624;2024-03-25T02:20:40;29.38;;;16.52;;
60336;SDS011;46978;50.288;28.624;2024-03-25T02:23:03;30.06;;;16.16;;
60336;SDS011;46978;50.288;28.624;2024-03-25T02:24:05;31.99;;;17.69;;
60336;SDS011;46978;50.288;28.624;2024-03-25T02:25:10;27.25;;;16.04;;
60336;SDS011;46978;50.288;28.624;2024-03-25T02:26:13;31.33;;;17.27;;
60336;SDS011;46978;50.288;28.624;2024-03-25T02:27:14;28.96;;;15.83;;
60336;SDS011;46978;50.288;28.624;2024-03-25T02:28:16;27.11;;;15.44;;
60336;SDS011;46978;50.288;28.624;2024-03-25T02:29:18;28.42;;;15.93;;
60336;SDS011;46978;50.288;28.624;2024-03-25T02:30:19;29.52;;;17.04;;
60336;SDS011;46978;50.288;28.624;2024-03-25T02:31:21;30.70;;;17.48;;
60336;SDS011;46978;50.288;28.624;2024-03-25T02:32:22;35.74;;;18.12;;
60336;SDS011;46978;50.288;28.624;2024-03-25T02:33:24;31.02;;;17.66;;
60336;SDS011;46978;50.288;28.624;2024-03-25T02:34:25;32.36;;;17.06;;
60336;SDS011;46978;50.288;28.624;2024-03-25T02:35:27;27.74;;;16.26;;
60336;SDS011;46978;50.288;28.624;2024-03-25T02:36:29;29.44;;;15.78;;
60336;SDS011;46978;50.288;28.624;2024-03-25T02:37:31;25.31;;;14.36;;
60336;SDS011;46978;50.288;28.624;2024-03-25T02:38:34;27.63;;;14.72;;
60336;SDS011;46978;50.288;28.624;2024-03-25T02:39:36;25.11;;;15.12;;
60336;SDS011;46978;50.288;28.624;2024-03-25T02:40:38;25.78;;;14.27;;
60336;SDS011;46978;50.288;28.624;2024-03-25T02:41:40;25.27;;;14.88;;
60336;SDS011;46978;50.288;28.624;2024-03-25T02:42:42;21.81;;;12.81;;
60336;SDS011;46978;50.288;28.624;2024-03-25T02:43:43;21.46;;;12.39;;
60336;SDS011;46978;50.288;28.624;2024-03-25T02:44:45;22.14;;;13.11;;
60336;SDS011;46978;50.288;28.624;2024-03-25T02:45:47;25.29;;;14.55;;
60336;SDS011;46978;50.288;28.624;2024-03-25T02:46:49;22.35;;;13.37;;
60336;SDS011;46978;50.288;28.624;2024-03-25T02:47:52;22.67;;;13.67;;
60336;SDS011;46978;50.288;28.624;2024-03-25T02:48:53;23.93;;;13.11;;
60336;SDS011;46978;50.288;28.624;2024-03-25T02:49:55;22.39;;;12.87;;
60336;SDS011;46978;50.288;28.624;2024-03-25T02:50:57;20.10;;;12.27;;
60336;SDS011;46978;50.288;28.624;2024-03-25T02:51:59;22.24;;;12.35;;
60336;SDS011;46978;50.288;28.624;2024-03-25T02:53:00;22.91;;;12.59;;
60336;SDS011;46978;50.288;28.624;2024-03-25T02:54:02;24.29;;;12.41;;
60336;SDS011;46978;50.288;28.624;2024-03-25T02:55:04;22.49;;;13.41;;
60336;SDS011;46978;50.288;28.624;2024-03-25T02:56:06;23.95;;;13.38;;
60336;SDS011;46978;50.288;28.624;2024-03-25T02:57:08;31.09;;;14.71;;
60336;SDS011;46978;50.288;28.624;2024-03-25T02:58:09;30.30;;;15.27;;
60336;SDS011;46978;50.288;28.624;2024-03-25T02:59:11;31.89;;;16.14;;
60336;SDS011;46978;50.288;28.624;2024-03-25T03:00:13;35.62;;;18.04;;
60336;SDS011;46978;50.288;28.624;2024-03-25T03:01:15;32.67;;;16.74;;
60336;SDS011;46978;50.288;28.624;2024-03-25T03:02:17;42.65;;;20.86;;
60336;SDS011;46978;50.288;28.624;2024-03-25T03:03:19;47.93;;;22.87;;
60336;SDS011;46978;50.288;28.624;2024-03-25T03:04:20;40.57;;;20.63;;
60336;SDS011;46978;50.288;28.624;2024-03-25T03:05:22;49.26;;;22.54;;
60336;SDS011;46978;50.288;28.624;2024-03-25T03:06:24;39.09;;;19.55;;
60336;SDS011;46978;50.288;28.624;2024-03-25T03:07:25;38.69;;;19.29;;
60336;SDS011;46978;50.288;28.624;2024-03-25T03:08:27;36.39;;;18.25;;
60336;SDS011;46978;50.288;28.624;2024-03-25T03:09:29;33.74;;;17.89;;
60336;SDS011;46978;50.288;28.624;2024-03-25T03:10:30;28.58;;;16.44;;
60336;SDS011;46978;50.288;28.624;2024-03-25T03:11:32;32.02;;;18.16;;
60336;SDS011;46978;50.288;28.624;2024-03-25T03:12:33;33.24;;;18.62;;
60336;SDS011;46978;50.288;28.624;2024-03-25T03:13:35;34.79;;;17.35;;
60336;SDS011;46978;50.288;28.624;2024-03-25T03:14:36;30.36;;;16.61;;
60336;SDS011;46978;50.288;28.624;2024-03-25T03:15:38;35.59;;;17.13;;
60336;SDS011;46978;50.288;28.624;2024-03-25T03:16:43;33.54;;;17.58;;
60336;SDS011;46978;50.288;28.624;2024-03-25T03:17:45;41.17;;;20.31;;
60336;SDS011;46978;50.288;28.624;2024-03-25T03:18:46;34.05;;;18.43;;
60336;SDS011;46978;50.288;28.624;2024-03-25T03:19:48;33.34;;;18.43;;
60336;SDS011;46978;50.288;28.624;2024-03-25T03:20:49;31.05;;;18.34;;
60336;SDS011;46978;50.288;28.624;2024-03-25T03:21:51;34.10;;;18.56;;
60336;SDS011;46978;50.288;28.624;2024-03-25T03:22:53;32.53;;;18.02;;
60336;SDS011;46978;50.288;28.624;2024-03-25T03:23:54;38.70;;;19.36;;
60336;SDS011;46978;50.288;28.624;2024-03-25T03:24:56;33.12;;;18.77;;
60336;SDS011;46978;50.288;28.624;2024-03-25T03:25:58;34.75;;;20.86;;
60336;SDS011;46978;50.288;28.624;2024-03-25T03:27:00;30.63;;;19.04;;
60336;SDS011;46978;50.288;28.624;2024-03-25T03:28:02;33.57;;;18.28;;
60336;SDS011;46978;50.288;28.624;2024-03-25T03:29:04;33.35;;;19.11;;
60336;SDS011;46978;50.288;28.624;2024-03-25T03:30:07;38.71;;;20.49;;
60336;SDS011;46978;50.288;28.624;2024-03-25T03:31:09;37.97;;;21.89;;
60336;SDS011;46978;50.288;28.624;2024-03-25T03:32:11;36.46;;;22.21;;
60336;SDS011;46978;50.288;28.624;2024-03-25T03:33:12;40.93;;;22.86;;
60336;SDS011;46978;50.288;28.624;2024-03-25T03:34:14;37.17;;;21.21;;
60336;SDS011;46978;50.288;28.624;2024-03-25T03:35:15;39.53;;;22.40;;
60336;SDS011;46978;50.288;28.624;2024-03-25T03:36:17;41.91;;;22.71;;
60336;SDS011;46978;50.288;28.624;2024-03-25T03:37:20;36.74;;;20.55;;
60336;SDS011;46978;50.288;28.624;2024-03-25T03:38:22;37.79;;;20.02;;
60336;SDS011;46978;50.288;28.624;2024-03-25T03:39:24;35.15;;;19.79;;
60336;SDS011;46978;50.288;28.624;2024-03-25T03:40:26;45.37;;;25.09;;
60336;SDS011;46978;50.288;28.624;2024-03-25T03:41:27;78.02;;;36.26;;
60336;SDS011;46978;50.288;28.624;2024-03-25T03:42:29;75.67;;;34.97;;
60336;SDS011;46978;50.288;28.624;2024-03-25T03:43:31;72.89;;;36.32;;
60336;SDS011;46978;50.288;28.624;2024-03-25T03:44:32;70.69;;;32.77;;
60336;SDS011;46978;50.288;28.624;2024-03-25T03:45:34;62.71;;;33.07;;
60336;SDS011;46978;50.288;28.624;2024-03-25T03:46:35;64.14;;;32.21;;
60336;SDS011;46978;50.288;28.624;2024-03-25T03:47:37;61.13;;;32.04;;
60336;SDS011;46978;50.288;28.624;2024-03-25T03:48:39;57.31;;;29.72;;
60336;SDS011;46978;50.288;28.624;2024-03-25T03:49:40;59.66;;;31.56;;
60336;SDS011;46978;50.288;28.624;2024-03-25T03:50:42;64.56;;;32.97;;
60336;SDS011;46978;50.288;28.624;2024-03-25T03:51:44;63.71;;;29.59;;
60336;SDS011;46978;50.288;28.624;2024-03-25T03:52:45;66.49;;;30.64;;
60336;SDS011;46978;50.288;28.624;2024-03-25T03:53:47;66.06;;;30.28;;
60336;SDS011;46978;50.288;28.624;2024-03-25T03:54:48;66.26;;;31.39;;
60336;SDS011;46978;50.288;28.624;2024-03-25T03:55:53;61.63;;;30.46;;
60336;SDS011;46978;50.288;28.624;2024-03-25T03:56:57;59.67;;;30.79;;
60336;SDS011;46978;50.288;28.624;2024-03-25T03:57:58;60.75;;;31.41;;
60336;SDS011;46978;50.288;28.624;2024-03-25T03:59:00;60.56;;;29.51;;
60336;SDS011;46978;50.288;28.624;2024-03-25T04:00:02;63.58;;;31.22;;
60336;SDS011;46978;50.288;28.624;2024-03-25T04:01:04;59.76;;;31.44;;
60336;SDS011;46978;50.288;28.624;2024-03-25T04:02:05;59.09;;;28.61;;
60336;SDS011;46978;50.288;28.624;2024-03-25T04:03:28;54.47;;;28.86;;
60336;SDS011;46978;50.288;28.624;2024-03-25T04:04:30;50.61;;;26.62;;
60336;SDS011;46978;50.288;28.624;2024-03-25T04:05:32;54.83;;;27.93;;
60336;SDS011;46978;50.288;28.624;2024-03-25T04:06:33;52.15;;;27.16;;
60336;SDS011;46978;50.288;28.624;2024-03-25T04:07:35;50.91;;;26.51;;
60336;SDS011;46978;50.288;28.624;2024-03-25T04:08:37;50.10;;;27.84;;
60336;SDS011;46978;50.288;28.624;2024-03-25T04:09:39;49.90;;;27.36;;
60336;SDS011;46978;50.288;28.624;2024-03-25T04:10:41;53.19;;;27.21;;
60336;SDS011;46978;50.288;28.624;2024-03-25T04:11:44;63.99;;;32.14;;
60336;SDS011;46978;50.288;28.624;2024-03-25T04:12:46;70.76;;;36.79;;
60336;SDS011;46978;50.288;28.624;2024-03-25T04:13:47;64.01;;;31.83;;
60336;SDS011;46978;50.288;28.624;2024-03-25T04:14:49;51.45;;;29.90;;
60336;SDS011;46978;50.288;28.624;2024-03-25T04:15:50;54.43;;;29.25;;
60336;SDS011;46978;50.288;28.624;2024-03-25T04:16:52;60.81;;;31.74;;
60336;SDS011;46978;50.288;28.624;2024-03-25T04:17:54;58.85;;;30.71;;
60336;SDS011;46978;50.288;28.624;2024-03-25T04:18:55;57.65;;;29.98;;
60336;SDS011;46978;50.288;28.624;2024-03-25T04:20:00;58.95;;;29.00;;
60336;SDS011;46978;50.288;28.624;2024-03-25T04:21:02;53.06;;;26.93;;
60336;SDS011;46978;50.288;28.624;2024-03-25T04:22:04;47.75;;;26.15;;
60336;SDS011;46978;50.288;28.624;2024-03-25T04:23:05;50.03;;;26.96;;
60336;SDS011;46978;50.288;28.624;2024-03-25T04:24:07;47.59;;;24.65;;
60336;SDS011;46978;50.288;28.624;2024-03-25T04:25:09;55.06;;;26.52;;
60336;SDS011;46978;50.288;28.624;2024-03-25T04:26:12;44.93;;;24.03;;
60336;SDS011;46978;50.288;28.624;2024-03-25T04:27:13;46.78;;;23.74;;
60336;SDS011;46978;50.288;28.624;2024-03-25T04:28:14;44.06;;;23.01;;
60336;SDS011;46978;50.288;28.624;2024-03-25T04:29:16;45.69;;;23.94;;
60336;SDS011;46978;50.288;28.624;2024-03-25T04:30:18;45.01;;;22.26;;
60336;SDS011;46978;50.288;28.624;2024-03-25T04:31:19;43.71;;;22.03;;
60336;SDS011;46978;50.288;28.624;2024-03-25T04:32:21;40.49;;;21.21;;
60336;SDS011;46978;50.288;28.624;2024-03-25T04:33:23;32.09;;;18.28;;
60336;SDS011;46978;50.288;28.624;2024-03-25T04:34:24;38.44;;;21.02;;
60336;SDS011;46978;50.288;28.624;2024-03-25T04:35:26;43.09;;;20.38;;
60336;SDS011;46978;50.288;28.624;2024-03-25T04:36:27;41.23;;;23.38;;
60336;SDS011;46978;50.288;28.624;2024-03-25T04:37:29;51.85;;;26.89;;
60336;SDS011;46978;50.288;28.624;2024-03-25T04:38:31;102.35;;;50.70;;
60336;SDS011;46978;50.288;28.624;2024-03-25T04:39:32;218.19;;;97.50;;
60336;SDS011;46978;50.288;28.624;2024-03-25T04:40:34;264.47;;;117.30;;
60336;SDS011;46978;50.288;28.624;2024-03-25T04:41:36;178.71;;;80.54;;
60336;SDS011;46978;50.288;28.624;2024-03-25T04:42:37;143.86;;;66.06;;
60336;SDS011;46978;50.288;28.624;2024-03-25T04:43:39;118.93;;;56.56;;
60336;SDS011;46978;50.288;28.624;2024-03-25T04:44:40;60.73;;;31.65;;
60336;SDS011;46978;50.288;28.624;2024-03-25T04:45:42;63.44;;;32.83;;
60336;SDS011;46978;50.288;28.624;2024-03-25T04:46:44;40.65;;;24.21;;
60336;SDS011;46978;50.288;28.624;2024-03-25T04:47:45;39.92;;;22.81;;
60336;SDS011;46978;50.288;28.624;2024-03-25T04:48:47;50.45;;;29.35;;
60336;SDS011;46978;50.288;28.624;2024-03-25T04:49:48;52.42;;;28.97;;
60336;SDS011;46978;50.288;28.624;2024-03-25T04:50:50;61.60;;;35.24;;
60336;SDS011;46978;50.288;28.624;2024-03-25T04:51:52;63.49;;;35.34;;
60336;SDS011;46978;50.288;28.624;2024-03-25T04:52:53;57.27;;;30.46;;
60336;SDS011;46978;50.288;28.624;2024-03-25T04:53:55;57.84;;;33.73;;
60336;SDS011;46978;50.288;28.624;2024-03-25T04:54:56;68.81;;;40.42;;
60336;SDS011;46978;50.288;28.624;2024-03-25T04:55:58;57.06;;;35.64;;
60336;SDS011;46978;50.288;28.624;2024-03-25T04:57:00;66.67;;;39.85;;
60336;SDS011;46978;50.288;28.624;2024-03-25T04:58:02;50.84;;;29.27;;
60336;SDS011;46978;50.288;28.624;2024-03-25T04:59:03;50.21;;;29.44;;
60336;SDS011;46978;50.288;28.624;2024-03-25T05:00:06;55.11;;;29.36;;
60336;SDS011;46978;50.288;28.624;2024-03-25T05:01:08;50.74;;;28.06;;
60336;SDS011;46978;50.288;28.624;2024-03-25T05:02:10;52.49;;;28.67;;
60336;SDS011;46978;50.288;28.624;2024-03-25T05:03:12;51.14;;;27.20;;
60336;SDS011;46978;50.288;28.624;2024-03-25T05:04:13;54.35;;;28.86;;
60336;SDS011;46978;50.288;28.624;2024-03-25T05:05:15;52.43;;;27.12;;
60336;SDS011;46978;50.288;28.624;2024-03-25T05:06:16;51.46;;;26.58;;
60336;SDS011;46978;50.288;28.624;2024-03-25T05:07:18;45.64;;;25.16;;
60336;SDS011;46978;50.288;28.624;2024-03-25T05:08:21;42.07;;;22.89;;
60336;SDS011;46978;50.288;28.624;2024-03-25T05:09:23;44.50;;;23.76;;
60336;SDS011;46978;50.288;28.624;2024-03-25T05:10:25;47.69;;;25.06;;
60336;SDS011;46978;50.288;28.624;2024-03-25T05:11:26;44.39;;;24.54;;
60336;SDS011;46978;50.288;28.624;2024-03-25T05:12:28;44.19;;;24.01;;
60336;SDS011;46978;50.288;28.624;2024-03-25T05:13:29;45.94;;;25.12;;
60336;SDS011;46978;50.288;28.624;2024-03-25T05:14:31;42.98;;;24.85;;
60336;SDS011;46978;50.288;28.624;2024-03-25T05:15:33;43.69;;;25.00;;
60336;SDS011;46978;50.288;28.624;2024-03-25T05:16:34;38.08;;;23.90;;
60336;SDS011;46978;50.288;28.624;2024-03-25T05:17:36;46.15;;;26.54;;
60336;SDS011;46978;50.288;28.624;2024-03-25T05:18:37;44.14;;;25.35;;
60336;SDS011;46978;50.288;28.624;2024-03-25T05:19:39;41.43;;;24.06;;
60336;SDS011;46978;50.288;28.624;2024-03-25T05:20:41;44.64;;;24.81;;
60336;SDS011;46978;50.288;28.624;2024-03-25T05:21:42;40.45;;;21.70;;
60336;SDS011;46978;50.288;28.624;2024-03-25T05:22:44;31.36;;;18.64;;
60336;SDS011;46978;50.288;28.624;2024-03-25T05:23:45;33.26;;;19.89;;
60336;SDS011;46978;50.288;28.624;2024-03-25T05:24:47;31.61;;;18.10;;
60336;SDS011;46978;50.288;28.624;2024-03-25T05:25:48;29.83;;;17.58;;
60336;SDS011;46978;50.288;28.624;2024-03-25T05:26:50;34.32;;;20.30;;
60336;SDS011;46978;50.288;28.624;2024-03-25T05:27:52;31.69;;;17.77;;
60336;SDS011;46978;50.288;28.624;2024-03-25T05:28:54;25.13;;;15.95;;
60336;SDS011;46978;50.288;28.624;2024-03-25T05:29:56;26.89;;;15.29;;
60336;SDS011;46978;50.288;28.624;2024-03-25T05:31:05;25.45;;;15.12;;
60336;SDS011;46978;50.288;28.624;2024-03-25T05:32:08;25.58;;;15.10;;
60336;SDS011;46978;50.288;28.624;2024-03-25T05:33:10;23.32;;;13.21;;
60336;SDS011;46978;50.288;28.624;2024-03-25T05:34:12;27.89;;;15.28;;
60336;SDS011;46978;50.288;28.624;2024-03-25T05:35:13;26.04;;;14.65;;
60336;SDS011;46978;50.288;28.624;2024-03-25T05:36:15;26.26;;;16.34;;
60336;SDS011;46978;50.288;28.624;2024-03-25T05:37:16;24.69;;;15.62;;
60336;SDS011;46978;50.288;28.624;2024-03-25T05:38:18;24.86;;;16.36;;
60336;SDS011;46978;50.288;28.624;2024-03-25T05:39:20;23.64;;;14.96;;
60336;SDS011;46978;50.288;28.624;2024-03-25T05:40:22;25.65;;;16.94;;
60336;SDS011;46978;50.288;28.624;2024-03-25T05:41:23;24.96;;;16.74;;
60336;SDS011;46978;50.288;28.624;2024-03-25T05:42:25;23.89;;;14.66;;
60336;SDS011;46978;50.288;28.624;2024-03-25T05:43:27;22.56;;;13.67;;
60336;SDS011;46978;50.288;28.624;2024-03-25T05:44:28;19.60;;;11.80;;
60336;SDS011;46978;50.288;28.624;2024-03-25T05:45:30;19.87;;;12.32;;
60336;SDS011;46978;50.288;28.624;2024-03-25T05:46:31;23.36;;;13.88;;
60336;SDS011;46978;50.288;28.624;2024-03-25T05:47:33;22.92;;;12.89;;
60336;SDS011;46978;50.288;28.624;2024-03-25T05:48:35;24.49;;;14.26;;
60336;SDS011;46978;50.288;28.624;2024-03-25T05:49:36;27.14;;;15.18;;
60336;SDS011;46978;50.288;28.624;2024-03-25T05:50:38;23.39;;;14.51;;
60336;SDS011;46978;50.288;28.624;2024-03-25T05:51:39;21.24;;;12.19;;
60336;SDS011;46978;50.288;28.624;2024-03-25T05:52:41;19.91;;;13.19;;
60336;SDS011;46978;50.288;28.624;2024-03-25T05:53:42;22.83;;;13.11;;
60336;SDS011;46978;50.288;28.624;2024-03-25T05:54:44;25.54;;;14.73;;
60336;SDS011;46978;50.288;28.624;2024-03-25T05:55:45;26.52;;;14.93;;
60336;SDS011;46978;50.288;28.624;2024-03-25T05:56:47;28.14;;;16.99;;
60336;SDS011;46978;50.288;28.624;2024-03-25T05:57:49;26.54;;;14.67;;